Time;durP1;ratioP1;P1;durP2;ratioP2;P2;SDS_P1;SDS_P2;PMS_P1;PMS_P2;Temp;Humidity;BMP_temperature;BMP_pressure;BME280_temperature;BME280_humidity;BME280_pressure;Samples;Min_cycle;Max_cycle;Signal;HPM_P1;HPM_P2
2022/08/08 00:02:00;;;;;;;7.38;4.63;;;14.20;99.90;;;;;;4988145;28;20086;-92
2022/08/08 00:04:30;;;;;;;;;;;14.20;99.90;;;;;;4971297;28;20042;-93
2022/08/08 00:07:11;;;;;;;8.17;5.27;;;14.20;99.90;;;;;;4988292;28;19929;-92
2022/08/08 00:10:04;;;;;;;8.50;4.60;;;14.10;99.90;;;;;;4970100;28;20315;-91
2022/08/08 00:12:36;;;;;;;7.60;4.97;;;14.10;99.90;;;;;;4980645;28;20046;-91
2022/08/08 00:15:14;;;;;;;7.85;5.60;;;14.00;99.90;;;;;;4985623;28;20295;-92
2022/08/08 00:18:15;;;;;;;9.75;5.32;;;14.10;99.90;;;;;;4968183;28;20042;-92
2022/08/08 00:20:48;;;;;;;8.18;5.45;;;14.00;99.90;;;;;;4956352;28;20077;-91
2022/08/08 00:23:40;;;;;;;8.63;5.70;;;14.00;99.90;;;;;;4965264;28;20407;-93
2022/08/08 00:26:09;;;;;;;8.65;5.65;;;14.00;99.90;;;;;;4957648;28;20035;-92
2022/08/08 00:28:43;;;;;;;9.30;6.57;;;13.90;99.90;;;;;;4953727;28;20125;-92
2022/08/08 00:31:33;;;;;;;8.50;5.72;;;13.90;99.90;;;;;;4952661;28;20141;-93
2022/08/08 00:37:26;;;;;;;8.95;5.88;;;13.90;99.90;;;;;;4964297;28;20059;-92
2022/08/08 00:40:27;;;;;;;9.38;6.40;;;13.90;99.90;;;;;;4952521;28;20242;-94
2022/08/08 00:43:08;;;;;;;;;;;13.80;99.90;;;;;;4949163;28;20093;-92
2022/08/08 00:45:45;;;;;;;9.23;6.10;;;13.70;99.90;;;;;;4936888;28;19938;-93
2022/08/08 00:48:11;;;;;;;8.63;5.30;;;13.70;99.90;;;;;;4965439;28;20051;-91
2022/08/08 00:50:55;;;;;;;7.93;5.20;;;13.60;99.90;;;;;;4942059;28;20039;-91
2022/08/08 00:53:33;;;;;;;8.10;4.65;;;13.60;99.90;;;;;;4952207;28;20059;-91
2022/08/08 00:56:23;;;;;;;9.98;6.60;;;13.50;99.90;;;;;;4986920;28;20252;-92
2022/08/08 00:59:24;;;;;;;8.45;5.20;;;13.50;99.90;;;;;;4968076;28;20057;-91
2022/08/08 01:02:08;;;;;;;7.95;4.95;;;13.40;99.90;;;;;;4969678;28;20046;-91
2022/08/08 01:04:59;;;;;;;8.75;5.13;;;13.40;99.90;;;;;;4988854;28;20061;-91
2022/08/08 01:07:58;;;;;;;7.73;5.60;;;13.30;99.90;;;;;;4981454;28;20046;-92
2022/08/08 01:11:25;;;;;;;7.85;5.05;;;13.30;99.90;;;;;;4986633;28;20042;-91
2022/08/08 01:14:02;;;;;;;7.53;4.88;;;13.30;99.90;;;;;;4988440;28;20485;-93
2022/08/08 01:16:37;;;;;;;9.13;5.63;;;13.20;99.90;;;;;;4991242;28;20038;-93
2022/08/08 01:19:44;;;;;;;8.68;5.40;;;13.20;99.90;;;;;;4987891;28;20234;-93
2022/08/08 01:22:47;;;;;;;8.18;5.10;;;13.20;99.90;;;;;;4987346;28;20050;-92
2022/08/08 01:25:28;;;;;;;9.35;5.65;;;13.20;99.90;;;;;;4985401;28;20042;-92
2022/08/08 01:28:21;;;;;;;8.00;5.00;;;13.20;99.90;;;;;;4983721;28;20065;-91
2022/08/08 01:30:59;;;;;;;8.73;4.90;;;13.20;99.90;;;;;;4987585;28;20046;-91
2022/08/08 01:33:59;;;;;;;9.20;5.32;;;13.20;99.90;;;;;;4995073;28;20058;-91
2022/08/08 01:36:53;;;;;;;7.53;4.70;;;13.20;99.90;;;;;;4993073;28;20085;-93
2022/08/08 01:39:48;;;;;;;7.38;4.72;;;13.10;99.90;;;;;;4990546;28;20046;-93
2022/08/08 01:42:35;;;;;;;7.80;5.25;;;13.10;99.90;;;;;;4990110;28;20045;-93
2022/08/08 01:45:35;;;;;;;8.43;4.85;;;13.00;99.90;;;;;;4987888;28;20058;-93
2022/08/08 01:48:27;;;;;;;8.02;5.07;;;13.10;99.90;;;;;;4989197;28;20064;-93
2022/08/08 01:51:31;;;;;;;9.80;5.70;;;13.00;99.90;;;;;;4974231;28;20078;-93
2022/08/08 01:54:26;;;;;;;9.55;5.75;;;13.00;99.90;;;;;;4988861;28;20057;-94
2022/08/08 01:57:20;;;;;;;8.68;5.75;;;13.00;99.90;;;;;;4997367;28;20045;-91
2022/08/08 02:00:20;;;;;;;7.95;5.80;;;13.00;99.90;;;;;;4969643;28;20109;-92
2022/08/08 02:03:05;;;;;;;8.57;5.18;;;13.00;99.90;;;;;;4989037;28;20065;-94
2022/08/08 02:05:49;;;;;;;8.00;5.47;;;13.00;99.90;;;;;;4987601;28;20442;-91
2022/08/08 02:08:36;;;;;;;8.70;5.50;;;13.00;99.90;;;;;;4984285;28;20057;-92
2022/08/08 02:11:23;;;;;;;8.52;5.55;;;13.00;99.90;;;;;;4984166;28;20042;-92
2022/08/08 02:13:50;;;;;;;8.13;5.43;;;13.00;99.90;;;;;;4987123;28;20053;-91
2022/08/08 02:16:43;;;;;;;8.40;5.68;;;13.00;99.90;;;;;;4989854;28;20046;-92
2022/08/08 02:19:26;;;;;;;7.85;5.45;;;13.00;99.90;;;;;;4981905;28;20050;-92
2022/08/08 02:25:12;;;;;;;7.70;4.95;;;12.90;99.90;;;;;;4987581;28;20077;-92
2022/08/08 02:27:57;;;;;;;7.75;4.60;;;12.80;99.90;;;;;;4986705;28;20042;-93
2022/08/08 02:30:44;;;;;;;7.18;4.30;;;12.80;99.90;;;;;;4986604;28;20050;-92
2022/08/08 02:33:23;;;;;;;7.80;4.80;;;12.70;99.90;;;;;;4985676;28;20046;-91
2022/08/08 02:36:22;;;;;;;7.53;4.88;;;12.60;99.90;;;;;;4984642;28;20050;-93
2022/08/08 02:38:58;;;;;;;8.10;5.35;;;12.60;99.90;;;;;;4983966;28;20041;-92
2022/08/08 02:41:45;;;;;;;6.93;4.40;;;12.60;99.90;;;;;;4971434;28;20054;-91
2022/08/08 02:44:31;;;;;;;6.70;4.05;;;12.60;99.90;;;;;;4990166;28;20538;-92
2022/08/08 02:47:20;;;;;;;7.90;4.60;;;12.50;99.90;;;;;;4983779;28;20093;-92
2022/08/08 02:50:21;;;;;;;6.78;4.38;;;12.50;99.90;;;;;;4986725;28;20106;-92
2022/08/08 02:53:14;;;;;;;7.97;4.75;;;12.40;99.90;;;;;;4947410;28;20046;-92
2022/08/08 02:56:02;;;;;;;7.57;4.40;;;12.40;99.90;;;;;;4968114;28;20436;-92
2022/08/08 02:58:34;;;;;;;7.93;4.70;;;12.40;99.90;;;;;;4937376;28;20141;-92
2022/08/08 03:01:26;;;;;;;8.30;5.00;;;12.40;99.90;;;;;;4953835;28;20057;-91
2022/08/08 03:04:16;;;;;;;7.78;4.75;;;12.40;99.90;;;;;;4953771;28;20085;-92
2022/08/08 03:07:12;;;;;;;8.23;5.30;;;12.40;99.90;;;;;;4972256;28;20053;-92
2022/08/08 03:10:14;;;;;;;8.20;5.03;;;12.30;99.90;;;;;;4945078;28;20050;-91
2022/08/08 03:13:04;;;;;;;7.38;5.13;;;12.30;99.90;;;;;;4969884;28;20053;-92
2022/08/08 03:15:44;;;;;;;8.00;4.90;;;12.30;99.90;;;;;;4973468;28;20053;-92
2022/08/08 03:18:45;;;;;;;5.90;3.90;;;12.30;99.90;;;;;;4964689;28;20264;-92
2022/08/08 03:21:11;;;;;;;6.05;3.80;;;12.20;99.90;;;;;;4913641;28;20444;-91
2022/08/08 03:23:37;;;;;;;7.47;5.07;;;12.20;99.90;;;;;;4939239;28;20053;-91
2022/08/08 03:26:02;;;;;;;7.60;5.50;;;12.10;99.90;;;;;;4979671;28;20061;-91
2022/08/08 03:28:44;;;;;;;7.60;5.38;;;12.10;99.90;;;;;;4997599;28;20069;-91
2022/08/08 03:33:56;;;;;;;6.65;4.30;;;12.00;99.90;;;;;;5002473;28;20038;-91
2022/08/08 03:36:23;;;;;;;6.25;3.70;;;12.00;99.90;;;;;;5010547;28;20038;-92
2022/08/08 03:38:51;;;;;;;7.60;4.40;;;12.00;99.90;;;;;;5008513;28;20030;-93
2022/08/08 03:41:16;;;;;;;6.72;4.53;;;12.00;99.90;;;;;;5007445;28;20026;-91
2022/08/08 03:43:55;;;;;;;7.75;5.47;;;12.00;99.90;;;;;;4989984;28;20035;-92
2022/08/08 03:46:20;;;;;;;7.63;5.03;;;12.00;99.90;;;;;;4998173;28;20050;-93
2022/08/08 03:49:01;;;;;;;8.32;5.13;;;12.00;99.90;;;;;;4992798;28;20088;-92
2022/08/08 03:51:28;;;;;;;9.23;5.95;;;11.90;99.90;;;;;;4986504;28;20246;-92
2022/08/08 03:53:54;;;;;;;8.25;5.75;;;12.00;99.90;;;;;;4984075;28;20088;-91
2022/08/08 03:56:21;;;;;;;7.60;5.50;;;12.00;99.90;;;;;;4988359;28;20050;-91
2022/08/08 03:58:51;;;;;;;8.00;5.75;;;11.90;99.90;;;;;;4973814;28;20065;-92
2022/08/08 04:01:18;;;;;;;7.80;5.78;;;11.90;99.90;;;;;;4988846;28;20505;-91
2022/08/08 04:03:46;;;;;;;7.57;5.15;;;11.90;99.90;;;;;;4986246;28;20447;-92
2022/08/08 04:06:12;;;;;;;7.85;5.60;;;11.80;99.90;;;;;;4969057;28;20073;-92
2022/08/08 04:08:37;;;;;;;8.27;5.50;;;11.90;99.90;;;;;;4967893;28;20073;-93
2022/08/08 04:11:05;;;;;;;7.00;4.63;;;11.80;99.90;;;;;;4969788;28;20966;-92
2022/08/08 04:13:31;;;;;;;8.52;4.97;;;11.80;99.90;;;;;;4971605;28;20131;-93
2022/08/08 04:15:56;;;;;;;7.80;5.40;;;11.80;99.90;;;;;;4982288;28;20123;-91
2022/08/08 04:18:22;;;;;;;7.45;4.82;;;11.80;99.90;;;;;;4983204;28;20073;-92
2022/08/08 04:20:48;;;;;;;7.03;4.78;;;11.80;99.90;;;;;;4985511;28;20126;-92
2022/08/08 04:23:14;;;;;;;7.47;5.10;;;11.90;99.90;;;;;;4987268;28;20134;-92
2022/08/08 04:25:40;;;;;;;7.75;4.82;;;11.90;99.90;;;;;;4986504;28;20114;-92
2022/08/08 04:28:06;;;;;;;8.02;5.25;;;11.80;99.90;;;;;;4978858;28;20050;-92
2022/08/08 04:30:32;;;;;;;8.98;5.65;;;11.90;99.90;;;;;;4988075;28;20062;-93
2022/08/08 04:32:57;;;;;;;8.02;4.72;;;11.90;99.90;;;;;;4990890;28;20050;-92
2022/08/08 04:35:23;;;;;;;7.90;5.07;;;11.90;99.90;;;;;;4993624;28;20041;-92
2022/08/08 04:37:50;;;;;;;6.95;4.82;;;11.90;99.90;;;;;;4993321;28;20042;-92
2022/08/08 04:40:16;;;;;;;7.63;5.20;;;12.00;99.90;;;;;;4990963;28;20075;-92
2022/08/08 04:42:41;;;;;;;7.90;4.82;;;12.00;99.90;;;;;;4988717;28;20066;-92
2022/08/08 04:45:08;;;;;;;7.72;5.30;;;12.00;99.90;;;;;;4987525;28;20587;-92
2022/08/08 04:47:33;;;;;;;8.23;5.80;;;12.00;99.90;;;;;;4987632;28;20377;-91
2022/08/08 04:49:59;;;;;;;8.40;5.68;;;12.10;99.90;;;;;;4991678;28;20078;-91
2022/08/08 04:52:24;;;;;;;8.38;5.57;;;12.10;99.90;;;;;;4988844;28;20046;-92
2022/08/08 04:54:50;;;;;;;7.95;5.50;;;12.20;99.90;;;;;;4972848;28;20092;-92
2022/08/08 04:57:16;;;;;;;8.30;6.00;;;12.20;99.90;;;;;;4988668;28;20092;-92
2022/08/08 04:59:42;;;;;;;10.02;6.15;;;12.30;99.90;;;;;;4991378;28;20042;-91
2022/08/08 05:02:08;;;;;;;8.20;6.07;;;12.40;99.90;;;;;;4989508;28;20078;-90
2022/08/08 05:04:34;;;;;;;9.18;6.32;;;12.50;99.90;;;;;;4999193;28;20045;-89
2022/08/08 05:07:00;;;;;;;8.13;6.13;;;12.60;99.90;;;;;;4984965;28;20862;-89
2022/08/08 05:09:25;;;;;;;8.55;6.30;;;12.60;99.90;;;;;;4985941;28;20552;-89
2022/08/08 05:11:51;;;;;;;10.20;7.68;;;12.70;99.90;;;;;;4969075;28;20133;-90
2022/08/08 05:14:17;;;;;;;9.50;7.18;;;12.80;99.90;;;;;;4968293;28;20109;-92
2022/08/08 05:16:42;;;;;;;9.63;6.68;;;12.90;99.90;;;;;;4988634;28;20078;-93
2022/08/08 05:19:11;;;;;;;10.65;7.47;;;13.00;99.90;;;;;;4971696;28;20134;-89
2022/08/08 05:21:42;;;;;;;9.65;6.65;;;13.00;99.90;;;;;;4986230;28;20061;-90
2022/08/08 05:24:08;;;;;;;8.40;6.55;;;13.10;99.90;;;;;;4983828;28;20062;-93
2022/08/08 05:26:35;;;;;;;9.30;6.75;;;13.20;99.90;;;;;;4988470;28;20048;-92
2022/08/08 05:29:02;;;;;;;9.30;7.13;;;13.30;99.90;;;;;;4987211;28;20077;-93
2022/08/08 05:31:29;;;;;;;9.45;6.65;;;13.40;99.90;;;;;;4989039;28;20077;-93
2022/08/08 05:33:55;;;;;;;9.73;6.43;;;13.50;99.90;;;;;;4987803;28;20034;-92
2022/08/08 05:36:23;;;;;;;9.13;6.85;;;13.60;99.90;;;;;;4986350;28;20073;-94
2022/08/08 05:38:51;;;;;;;9.32;6.78;;;13.70;99.90;;;;;;4988726;28;20047;-92
2022/08/08 05:41:22;;;;;;;9.85;6.47;;;13.80;99.90;;;;;;4986193;28;20053;-93
2022/08/08 05:43:48;;;;;;;9.32;6.28;;;13.90;99.90;;;;;;4987975;28;20039;-94
2022/08/08 05:46:15;;;;;;;8.98;6.50;;;14.00;99.90;;;;;;4990343;28;20053;-93
2022/08/08 05:48:41;;;;;;;10.60;6.57;;;14.10;99.90;;;;;;4995627;28;20038;-92
2022/08/08 05:51:07;;;;;;;8.93;6.00;;;14.20;99.90;;;;;;4987473;28;20046;-94
2022/08/08 05:53:33;;;;;;;8.80;6.22;;;14.30;99.90;;;;;;4990024;28;20042;-93
2022/08/08 05:56:00;;;;;;;9.13;7.22;;;14.50;99.90;;;;;;4993217;28;20365;-92
2022/08/08 05:58:31;;;;;;;10.35;7.03;;;14.60;99.90;;;;;;4991464;28;20045;-93
2022/08/08 06:00:59;;;;;;;10.25;6.50;;;14.70;99.90;;;;;;4989081;28;20057;-91
2022/08/08 06:03:25;;;;;;;10.93;6.90;;;14.80;99.90;;;;;;4988786;28;20141;-95
2022/08/08 06:05:58;;;;;;;9.98;6.68;;;14.90;99.90;;;;;;4986643;28;20841;-91
2022/08/08 06:08:26;;;;;;;9.93;7.22;;;15.00;99.90;;;;;;4990505;28;20106;-92
2022/08/08 06:10:55;;;;;;;11.25;7.65;;;15.20;99.90;;;;;;4987072;28;20045;-94
2022/08/08 06:13:22;;;;;;;9.00;6.90;;;15.30;99.90;;;;;;4986972;28;20046;-92
2022/08/08 06:15:49;;;;;;;11.13;7.00;;;15.40;99.90;;;;;;4987070;28;20077;-89
2022/08/08 06:18:16;;;;;;;10.52;7.15;;;15.50;99.90;;;;;;4979871;28;20042;-84
2022/08/08 06:20:43;;;;;;;9.57;6.95;;;15.60;99.90;;;;;;4966358;28;20120;-82
2022/08/08 06:23:09;;;;;;;9.30;6.25;;;15.80;99.90;;;;;;4968216;28;20639;-83
2022/08/08 06:25:37;;;;;;;9.05;6.22;;;15.90;99.90;;;;;;4983922;28;20049;-83
2022/08/08 06:28:14;;;;;;;9.18;5.88;;;16.00;99.90;;;;;;4981893;28;20081;-83
2022/08/08 06:30:42;;;;;;;11.40;6.93;;;16.20;99.90;;;;;;4982454;28;20057;-84
2022/08/08 06:33:10;;;;;;;8.68;5.63;;;16.30;99.90;;;;;;4979577;28;20039;-83
2022/08/08 06:35:39;;;;;;;10.55;5.80;;;16.50;99.90;;;;;;4986006;28;20101;-83
2022/08/08 06:38:05;;;;;;;8.70;5.28;;;16.60;99.90;;;;;;4983797;28;20081;-84
2022/08/08 06:40:32;;;;;;;11.25;6.13;;;16.80;99.90;;;;;;4985128;28;20052;-84
2022/08/08 06:43:07;;;;;;;9.73;5.68;;;16.90;99.90;;;;;;4981398;28;20142;-89
2022/08/08 06:45:33;;;;;;;9.63;5.68;;;17.00;99.90;;;;;;4979324;28;20046;-89
2022/08/08 06:47:59;;;;;;;11.18;5.50;;;17.10;99.90;;;;;;4982047;28;20143;-90
2022/08/08 06:50:26;;;;;;;9.75;5.57;;;17.20;99.90;;;;;;4987509;28;20402;-90
2022/08/08 06:52:52;;;;;;;10.25;5.95;;;17.20;99.90;;;;;;4983409;28;20515;-89
2022/08/08 06:55:20;;;;;;;10.13;5.10;;;17.30;99.90;;;;;;4969931;28;20073;-89
2022/08/08 06:57:46;;;;;;;9.77;4.78;;;17.30;99.90;;;;;;4983087;28;20051;-88
2022/08/08 07:00:13;;;;;;;8.05;4.50;;;17.40;99.90;;;;;;4985427;28;20043;-86
2022/08/08 07:02:42;;;;;;;10.05;5.20;;;17.60;99.90;;;;;;4984344;28;20053;-84
2022/08/08 07:05:12;;;;;;;9.75;4.78;;;17.70;99.90;;;;;;4991647;28;20074;-85
2022/08/08 07:07:51;;;;;;;10.02;4.95;;;17.80;99.90;;;;;;4985796;28;20047;-84
2022/08/08 07:10:22;;;;;;;9.90;3.67;;;18.00;99.90;;;;;;4985331;28;20126;-84
2022/08/08 07:13:18;;;;;;;9.15;4.53;;;18.10;99.90;;;;;;4986082;28;20050;-87
2022/08/08 07:16:05;;;;;;;10.00;3.90;;;18.10;99.90;;;;;;4981116;28;20053;-82
2022/08/08 07:18:40;;;;;;;8.18;4.10;;;18.20;99.90;;;;;;4990218;28;20050;-83
2022/08/08 07:21:07;;;;;;;9.38;4.20;;;18.30;99.90;;;;;;4982546;28;20042;-87
2022/08/08 07:23:56;;;;;;;8.25;3.55;;;18.40;99.90;;;;;;4967607;28;20453;-87
2022/08/08 07:26:24;;;;;;;9.77;5.05;;;18.50;99.90;;;;;;4993235;28;20042;-93
2022/08/08 07:28:52;;;;;;;9.40;4.82;;;18.60;99.90;;;;;;4974235;28;20062;-93
2022/08/08 07:31:19;;;;;;;9.00;4.72;;;18.70;99.90;;;;;;4974689;28;20394;-94
2022/08/08 07:33:47;;;;;;;9.70;4.18;;;18.80;99.90;;;;;;4988195;28;20050;-93
2022/08/08 07:36:13;;;;;;;9.55;4.28;;;18.80;99.90;;;;;;4990912;28;20070;-93
2022/08/08 07:38:40;;;;;;;8.00;4.00;;;18.80;99.90;;;;;;4989176;28;20525;-92
2022/08/08 07:41:07;;;;;;;9.13;3.58;;;18.90;99.90;;;;;;4990926;28;20038;-93
2022/08/08 07:43:33;;;;;;;7.70;3.65;;;19.00;99.90;;;;;;4987599;28;20077;-94
2022/08/08 07:45:59;;;;;;;9.20;3.33;;;19.00;99.90;;;;;;4988085;28;20769;-94
2022/08/08 07:48:24;;;;;;;8.50;3.30;;;19.20;99.90;;;;;;4972365;28;20100;-94
2022/08/08 07:50:53;;;;;;;7.72;2.97;;;19.20;99.90;;;;;;4988089;28;20069;-95
2022/08/08 07:53:34;;;;;;;8.80;2.60;;;19.30;99.90;;;;;;4988184;28;20137;-92
2022/08/08 07:56:01;;;;;;;;;;;19.40;99.90;;;;;;4970188;28;20399;-93
2022/08/08 07:58:41;;;;;;;7.90;2.40;;;19.40;99.90;;;;;;4988612;28;19925;-94
2022/08/08 08:01:12;;;;;;;7.30;2.33;;;19.60;99.90;;;;;;4989512;28;20051;-92
2022/08/08 08:03:56;;;;;;;7.13;2.55;;;19.70;99.90;;;;;;4991146;28;20469;-93
2022/08/08 08:06:24;;;;;;;8.20;2.22;;;19.60;99.90;;;;;;4972261;28;20042;-94
2022/08/08 08:08:55;;;;;;;11.07;2.80;;;19.60;99.90;;;;;;4975561;28;20069;-95
2022/08/08 08:11:22;;;;;;;7.55;2.40;;;19.60;99.90;;;;;;4993192;28;20061;-94
2022/08/08 08:14:02;;;;;;;6.85;2.53;;;19.60;99.90;;;;;;4976769;28;20347;-94
2022/08/08 08:16:32;;;;;;;8.05;2.35;;;19.60;99.90;;;;;;4976986;28;20134;-93
2022/08/08 08:19:16;;;;;;;5.57;2.17;;;19.60;99.90;;;;;;4977520;28;20062;-93
2022/08/08 08:21:45;;;;;;;7.25;2.22;;;19.50;99.90;;;;;;4994372;28;20050;-96
2022/08/08 08:24:11;;;;;;;6.90;2.35;;;19.50;99.90;;;;;;4992966;28;20064;-92
2022/08/08 08:26:37;;;;;;;7.10;2.40;;;19.60;99.90;;;;;;4995624;28;20458;-94
2022/08/08 08:29:04;;;;;;;7.93;2.47;;;19.60;99.90;;;;;;4993136;28;20129;-94
2022/08/08 08:31:30;;;;;;;6.20;2.08;;;19.60;99.90;;;;;;4998166;28;20082;-94
2022/08/08 08:33:56;;;;;;;7.30;2.75;;;19.60;99.90;;;;;;4998489;28;20415;-95
2022/08/08 08:36:23;;;;;;;6.63;2.40;;;19.60;99.90;;;;;;4996376;28;20046;-93
2022/08/08 08:38:49;;;;;;;6.80;2.45;;;19.70;99.90;;;;;;4994931;28;20042;-93
2022/08/08 08:41:19;;;;;;;7.05;2.30;;;19.80;99.90;;;;;;4996280;28;20045;-94
2022/08/08 08:43:48;;;;;;;8.60;2.13;;;19.80;99.90;;;;;;4995170;28;20088;-92
2022/08/08 08:46:13;;;;;;;8.80;2.30;;;19.90;99.90;;;;;;4994115;28;20434;-93
2022/08/08 08:48:43;;;;;;;6.97;2.33;;;20.00;99.90;;;;;;4981046;28;20121;-93
2022/08/08 08:51:16;;;;;;;6.35;2.45;;;20.10;99.90;;;;;;5002782;28;20053;-93
2022/08/08 08:53:48;;;;;;;6.80;2.30;;;20.20;99.90;;;;;;4998994;28;20042;-89
2022/08/08 08:56:17;;;;;;;6.18;2.13;;;20.30;99.90;;;;;;5001091;28;20058;-92
2022/08/08 08:58:44;;;;;;;6.70;1.85;;;20.40;99.90;;;;;;5000598;28;20037;-93
2022/08/08 09:01:12;;;;;;;4.30;1.90;;;20.40;99.90;;;;;;4992606;28;20046;-94
2022/08/08 09:03:44;;;;;;;5.82;1.85;;;20.50;99.90;;;;;;4995074;28;20058;-94
2022/08/08 09:06:10;;;;;;;5.55;1.90;;;20.50;99.90;;;;;;4970678;28;20046;-94
2022/08/08 09:08:43;;;;;;;7.20;2.05;;;20.50;99.90;;;;;;4992176;28;20050;-91
2022/08/08 09:11:09;;;;;;;6.65;2.13;;;20.50;99.90;;;;;;4989645;28;20049;-93
2022/08/08 09:13:36;;;;;;;6.20;1.90;;;20.50;99.90;;;;;;4987236;28;20056;-94
2022/08/08 09:16:02;;;;;;;5.90;1.90;;;20.50;99.90;;;;;;4991771;28;20089;-94
2022/08/08 09:18:29;;;;;;;7.80;2.20;;;20.70;99.90;;;;;;4974813;28;20085;-94
2022/08/08 09:20:57;;;;;;;5.85;1.85;;;20.80;99.90;;;;;;4989960;28;20086;-94
2022/08/08 09:23:24;;;;;;;5.03;1.67;;;21.00;99.90;;;;;;4975216;28;20454;-95
2022/08/08 09:26:04;;;;;;;5.75;2.30;;;21.10;99.90;;;;;;4976765;28;20101;-94
2022/08/08 09:28:36;;;;;;;7.60;1.90;;;21.10;99.90;;;;;;4974646;28;20121;-93
2022/08/08 09:31:11;;;;;;;7.18;1.60;;;21.10;99.90;;;;;;4991174;28;20062;-95
2022/08/08 09:33:40;;;;;;;7.30;2.00;;;21.10;99.90;;;;;;4991246;28;20057;-94
2022/08/08 09:36:11;;;;;;;5.88;2.08;;;21.10;99.90;;;;;;4984990;28;20057;-93
2022/08/08 09:38:52;;;;;;;5.85;1.70;;;20.90;99.90;;;;;;4991257;28;20092;-95
2022/08/08 09:41:27;;;;;;;5.63;1.95;;;21.00;99.90;;;;;;4988434;28;20149;-93
2022/08/08 09:44:03;;;;;;;5.25;2.10;;;21.00;99.90;;;;;;4988545;28;20086;-90
2022/08/08 09:46:29;;;;;;;5.10;1.60;;;21.00;99.90;;;;;;4987164;28;20395;-96
2022/08/08 09:48:56;;;;;;;5.57;1.70;;;21.10;99.90;;;;;;4992191;28;20050;-95
2022/08/08 09:51:30;;;;;;;5.82;1.80;;;21.10;99.90;;;;;;4989924;28;20048;-93
2022/08/08 09:54:02;;;;;;;6.10;1.80;;;21.20;99.90;;;;;;4983431;28;20042;-89
2022/08/08 09:56:36;;;;;;;6.18;1.88;;;21.40;99.90;;;;;;4988272;28;20054;-90
2022/08/08 09:59:04;;;;;;;7.20;1.83;;;21.50;99.90;;;;;;4986916;28;20125;-94
2022/08/08 10:01:32;;;;;;;5.63;1.70;;;21.70;99.90;;;;;;4988211;28;20050;-89
2022/08/08 10:03:59;;;;;;;6.30;1.85;;;21.70;99.90;;;;;;4988985;28;20121;-93
2022/08/08 10:06:25;;;;;;;4.22;1.73;;;21.70;99.90;;;;;;4989592;28;20046;-92
2022/08/08 10:08:52;;;;;;;5.35;1.70;;;21.70;99.90;;;;;;4987004;28;20137;-94
2022/08/08 10:11:19;;;;;;;5.63;1.67;;;21.80;99.90;;;;;;4988823;28;20108;-94
2022/08/08 10:13:53;;;;;;;4.25;1.70;;;21.70;99.90;;;;;;4988807;28;20050;-95
2022/08/08 10:16:19;;;;;;;4.75;1.55;;;21.70;99.90;;;;;;4990915;28;20133;-95
2022/08/08 10:18:45;;;;;;;5.97;1.55;;;21.70;99.90;;;;;;4993795;28;20065;-93
2022/08/08 10:21:15;;;;;;;5.78;1.55;;;21.70;99.90;;;;;;4998974;28;20058;-94
2022/08/08 10:23:46;;;;;;;3.50;1.42;;;21.70;99.90;;;;;;4993854;28;20053;-94
2022/08/08 10:26:18;;;;;;;3.67;1.30;;;21.80;99.90;;;;;;4976351;28;20054;-94
2022/08/08 10:29:10;;;;;;;3.35;1.33;;;21.70;99.90;;;;;;4982274;28;20064;-95
2022/08/08 10:34:24;;;;;;;4.43;1.48;;;21.70;99.90;;;;;;4993723;28;20042;-95
2022/08/08 10:36:51;;;;;;;5.13;1.73;;;21.70;99.90;;;;;;4975235;28;20369;-96
2022/08/08 10:39:21;;;;;;;4.78;1.80;;;21.80;99.90;;;;;;4992008;28;20038;-96
2022/08/08 10:41:59;;;;;;;4.07;1.55;;;21.70;99.90;;;;;;4989036;28;20477;-95
2022/08/08 10:44:38;;;;;;;7.47;1.83;;;21.70;99.90;;;;;;4990271;28;20061;-95
2022/08/08 10:47:15;;;;;;;5.00;1.60;;;21.70;99.90;;;;;;4970848;28;20532;-94
2022/08/08 10:49:48;;;;;;;5.60;1.60;;;21.70;99.90;;;;;;4974745;28;20125;-94
2022/08/08 10:52:21;;;;;;;4.13;1.38;;;21.70;99.90;;;;;;4992311;28;20093;-95
2022/08/08 10:54:56;;;;;;;4.70;1.60;;;21.70;99.90;;;;;;4993793;28;20054;-95
2022/08/08 10:57:22;;;;;;;3.78;1.58;;;21.80;99.90;;;;;;4977508;28;20050;-93
2022/08/08 10:59:56;;;;;;;4.18;1.55;;;21.90;99.90;;;;;;4993392;28;20049;-94
2022/08/08 11:02:31;;;;;;;5.60;1.60;;;22.00;99.90;;;;;;4991058;28;20138;-93
2022/08/08 11:04:59;;;;;;;4.45;1.30;;;22.00;99.90;;;;;;4988019;28;20074;-94
2022/08/08 11:07:33;;;;;;;4.18;1.48;;;21.90;99.90;;;;;;4972894;28;20735;-95
2022/08/08 11:10:01;;;;;;;4.22;1.23;;;21.80;99.90;;;;;;4972695;28;20049;-91
2022/08/08 11:12:26;;;;;;;5.45;1.50;;;21.70;99.90;;;;;;4989463;28;20046;-94
2022/08/08 11:14:58;;;;;;;3.22;1.30;;;21.70;99.90;;;;;;4987806;28;20054;-95
2022/08/08 11:17:30;;;;;;;3.53;1.48;;;21.60;99.90;;;;;;4989710;28;20043;-96
2022/08/08 11:19:58;;;;;;;4.63;1.55;;;21.60;99.90;;;;;;4990832;28;20050;-93
2022/08/08 11:22:25;;;;;;;2.50;1.10;;;21.60;99.90;;;;;;4991596;28;20042;-94
2022/08/08 11:24:57;;;;;;;4.65;1.23;;;21.60;99.90;;;;;;4988477;28;20073;-93
2022/08/08 11:27:28;;;;;;;4.03;1.60;;;21.60;99.90;;;;;;4995892;28;20172;-94
2022/08/08 11:29:56;;;;;;;4.43;1.40;;;21.50;99.90;;;;;;4991876;28;20054;-94
2022/08/08 11:32:29;;;;;;;4.05;1.33;;;21.60;99.90;;;;;;4987353;28;20058;-95
2022/08/08 11:35:06;;;;;;;4.03;1.50;;;21.70;99.90;;;;;;4985166;28;20050;-94
2022/08/08 11:37:33;;;;;;;4.88;1.40;;;21.70;99.90;;;;;;4988656;28;20189;-94
2022/08/08 11:40:05;;;;;;;3.75;1.40;;;21.80;99.90;;;;;;4989191;28;20042;-93
2022/08/08 11:42:31;;;;;;;3.50;1.40;;;21.90;99.90;;;;;;4973504;28;20144;-92
2022/08/08 11:44:58;;;;;;;5.90;1.40;;;22.00;99.90;;;;;;4992522;28;20050;-92
2022/08/08 11:47:25;;;;;;;4.50;1.27;;;22.10;99.90;;;;;;4993665;28;20055;-93
2022/08/08 11:49:54;;;;;;;3.17;1.42;;;22.10;99.90;;;;;;4993057;28;20074;-94
2022/08/08 11:52:21;;;;;;;3.28;1.10;;;22.20;99.90;;;;;;4994798;28;20042;-94
2022/08/08 11:54:47;;;;;;;3.45;1.38;;;22.20;99.90;;;;;;4992014;28;20038;-91
2022/08/08 11:57:20;;;;;;;3.53;1.30;;;22.40;99.90;;;;;;4990810;28;20096;-92
2022/08/08 12:00:06;;;;;;;3.20;1.20;;;22.40;99.90;;;;;;4975525;28;20039;-95
2022/08/08 12:02:43;;;;;;;2.83;1.20;;;22.50;99.90;;;;;;4991079;28;20061;-95
2022/08/08 12:05:10;;;;;;;4.63;1.40;;;22.40;99.90;;;;;;4993399;28;20050;-91
2022/08/08 12:07:50;;;;;;;5.90;1.50;;;22.50;99.90;;;;;;4975075;28;20074;-90
2022/08/08 12:10:17;;;;;;;4.07;1.50;;;22.50;99.90;;;;;;4990913;28;20043;-90
2022/08/08 12:12:44;;;;;;;3.85;1.10;;;22.60;99.90;;;;;;4975672;28;20053;-94
2022/08/08 12:15:10;;;;;;;3.83;1.23;;;22.70;99.90;;;;;;4991248;28;20134;-95
2022/08/08 12:17:39;;;;;;;2.20;1.23;;;22.80;99.90;;;;;;4993377;28;20462;-92
2022/08/08 12:20:06;;;;;;;2.97;1.10;;;22.80;99.90;;;;;;4990366;28;20046;-94
2022/08/08 12:22:32;;;;;;;4.95;1.30;;;22.80;99.90;;;;;;4975701;28;20078;-95
2022/08/08 12:25:01;;;;;;;2.63;1.02;;;22.80;99.90;;;;;;4992966;28;20054;-95
2022/08/08 12:27:37;;;;;;;4.88;1.30;;;22.70;99.90;;;;;;4995624;28;20058;-96
2022/08/08 12:30:04;;;;;;;3.58;1.10;;;22.70;99.90;;;;;;4994772;28;20491;-94
2022/08/08 12:32:43;;;;;;;4.60;1.38;;;22.60;99.90;;;;;;4991074;28;20047;-92
2022/08/08 12:35:22;;;;;;;4.35;1.50;;;22.40;99.90;;;;;;4993551;28;20038;-95
2022/08/08 12:38:07;;;;;;;4.22;1.17;;;22.40;99.90;;;;;;4975590;28;20077;-94
2022/08/08 12:40:46;;;;;;;2.85;1.20;;;22.20;99.90;;;;;;4980471;28;20042;-94
2022/08/08 12:43:14;;;;;;;4.80;1.52;;;22.10;99.90;;;;;;4993683;28;20415;-93
2022/08/08 12:45:41;;;;;;;4.18;1.40;;;22.00;99.90;;;;;;4991305;28;20057;-94
2022/08/08 12:48:19;;;;;;;3.63;1.30;;;22.00;99.90;;;;;;4992845;28;20065;-94
2022/08/08 12:50:56;;;;;;;5.75;1.30;;;22.00;99.90;;;;;;4975627;28;20042;-95
2022/08/08 12:53:31;;;;;;;3.70;1.23;;;21.90;99.90;;;;;;4971628;28;20462;-94
2022/08/08 12:56:05;;;;;;;4.10;1.33;;;21.90;99.90;;;;;;4993327;28;20034;-91
2022/08/08 12:58:46;;;;;;;3.97;1.45;;;22.00;99.90;;;;;;5001515;28;20046;-93
2022/08/08 13:01:12;;;;;;;2.85;1.20;;;22.00;99.90;;;;;;4980632;28;20050;-95
2022/08/08 13:03:49;;;;;;;3.03;1.30;;;22.00;99.90;;;;;;4991402;28;20038;-93
2022/08/08 13:06:17;;;;;;;4.50;1.60;;;22.00;99.90;;;;;;4991517;28;20047;-94
2022/08/08 13:08:50;;;;;;;4.32;1.30;;;22.00;99.90;;;;;;4991114;28;20050;-93
2022/08/08 13:11:34;;;;;;;3.78;1.20;;;22.10;99.90;;;;;;4992963;28;20552;-95
2022/08/08 13:14:02;;;;;;;5.70;1.42;;;22.10;99.90;;;;;;4996477;28;20043;-93
2022/08/08 13:16:31;;;;;;;3.78;1.30;;;22.20;99.90;;;;;;4993537;28;20046;-95
2022/08/08 13:18:57;;;;;;;3.20;1.27;;;22.10;99.90;;;;;;4992154;28;20192;-94
2022/08/08 13:21:23;;;;;;;4.22;1.60;;;22.10;99.90;;;;;;4976713;28;20046;-93
2022/08/08 13:23:49;;;;;;;5.53;1.35;;;22.30;99.90;;;;;;4991700;28;20042;-93
2022/08/08 13:26:15;;;;;;;3.40;1.50;;;22.30;99.90;;;;;;4994408;28;20846;-96
2022/08/08 13:28:41;;;;;;;4.35;1.33;;;22.30;99.90;;;;;;4992430;28;20057;-93
2022/08/08 13:31:11;;;;;;;5.03;1.25;;;22.30;99.90;;;;;;4993515;28;20050;-93
2022/08/08 13:33:37;;;;;;;5.32;1.30;;;22.40;99.90;;;;;;4987976;28;20059;-95